createdAt,value
2019-05-02T00:00:32.032Z,8.67
2019-05-02T00:03:04.381Z,9.70
2019-05-02T00:05:32.121Z,10.50
2019-05-02T00:08:01.117Z,8.57
2019-05-02T00:10:30.738Z,8.57
2019-05-02T00:12:59.398Z,7.17
2019-05-02T00:15:27.927Z,8.43
2019-05-02T00:17:56.791Z,8.73
2019-05-02T00:20:27.199Z,6.60
2019-05-02T00:22:55.733Z,8.07
2019-05-02T00:25:24.208Z,7.60
2019-05-02T00:27:52.757Z,7.80
2019-05-02T00:30:21.912Z,7.27
2019-05-02T00:32:53.151Z,7.80
2019-05-02T00:35:20.625Z,8.90
2019-05-02T00:37:49.141Z,7.40
2019-05-02T00:40:20.297Z,8.17
2019-05-02T00:42:47.887Z,7.77
2019-05-02T00:45:18.805Z,7.17
2019-05-02T00:47:49.825Z,6.03
2019-05-02T00:50:18.701Z,7.40
2019-05-02T00:52:47.208Z,7.27
2019-05-02T00:55:15.692Z,6.83
2019-05-02T00:57:44.191Z,7.43
2019-05-02T01:00:18.382Z,7.20
2019-05-02T01:02:49.852Z,7.30
2019-05-02T01:05:18.336Z,7.57
2019-05-02T01:07:46.865Z,7.07
2019-05-02T01:10:17.359Z,6.77
2019-05-02T01:12:46.189Z,6.83
2019-05-02T01:15:15.250Z,6.40
2019-05-02T01:17:43.725Z,7.57
2019-05-02T01:20:12.361Z,7.50
2019-05-02T01:22:40.945Z,7.33
2019-05-02T01:25:15.313Z,7.53
2019-05-02T01:27:48.261Z,5.87
2019-05-02T01:30:24.382Z,6.93
2019-05-02T01:33:01.430Z,7.53
2019-05-02T01:35:31.568Z,7.60
2019-05-02T01:38:19.299Z,7.40
2019-05-02T01:40:53.113Z,8.10
2019-05-02T01:43:27.572Z,7.70
2019-05-02T01:45:56.016Z,7.13
2019-05-02T01:48:24.751Z,6.53
2019-05-02T01:50:53.350Z,6.33
2019-05-02T01:53:21.821Z,7.70
2019-05-02T01:55:51.910Z,6.60
2019-05-02T01:58:22.518Z,7.27
2019-05-02T02:00:50.717Z,6.77
2019-05-02T02:03:19.371Z,7.00
2019-05-02T02:05:47.967Z,7.20
2019-05-02T02:08:16.452Z,7.80
2019-05-02T02:10:44.944Z,6.23
2019-05-02T02:13:14.300Z,7.20
2019-05-02T02:15:42.788Z,7.27
2019-05-02T02:18:12.627Z,6.80
2019-05-02T02:20:59.191Z,6.80
2019-05-02T02:23:29.293Z,6.87
2019-05-02T02:25:59.392Z,7.23
2019-05-02T02:28:32.078Z,5.50
2019-05-02T02:31:04.668Z,6.07
2019-05-02T02:33:28.299Z,6.63
2019-05-02T02:35:56.796Z,6.57
2019-05-02T02:38:26.818Z,6.23
2019-05-02T02:40:55.533Z,5.60
2019-05-02T02:43:34.062Z,6.90
2019-05-02T02:46:12.258Z,5.87
2019-05-02T02:48:42.697Z,6.73
2019-05-02T02:51:22.142Z,5.80
2019-05-02T02:53:41.210Z,6.67
2019-05-02T02:56:09.947Z,6.47
2019-05-02T02:58:45.158Z,6.43
2019-05-02T03:01:08.679Z,7.00
2019-05-02T03:03:38.147Z,7.07
2019-05-02T03:06:08.308Z,5.70
2019-05-02T03:08:45.305Z,6.73
2019-05-02T03:11:07.472Z,6.70
2019-05-02T03:13:51.283Z,6.70
2019-05-02T03:16:24.602Z,7.13
2019-05-02T03:18:53.073Z,5.80
2019-05-02T03:21:22.519Z,5.80
2019-05-02T03:24:01.546Z,6.70
2019-05-02T03:26:21.575Z,6.43
2019-05-02T03:28:57.670Z,6.87
2019-05-02T03:31:24.897Z,6.37
2019-05-02T03:33:55.785Z,7.60
2019-05-02T03:36:29.669Z,8.23
2019-05-02T03:38:51.082Z,6.63
2019-05-02T03:41:20.753Z,5.90
2019-05-02T03:43:50.087Z,7.43
2019-05-02T03:46:20.615Z,6.80
2019-05-02T03:48:48.873Z,7.33
2019-05-02T03:51:21.675Z,6.93
2019-05-02T03:53:47.616Z,7.00
2019-05-02T03:56:16.258Z,8.80
2019-05-02T03:58:48.334Z,7.47
2019-05-02T04:01:15.512Z,6.70
2019-05-02T04:03:44.144Z,8.60
2019-05-02T04:06:20.292Z,7.40
2019-05-02T04:08:43.876Z,6.77
2019-05-02T04:11:15.524Z,6.50
2019-05-02T04:13:43.990Z,7.40
2019-05-02T04:16:15.511Z,8.03
2019-05-02T04:18:54.588Z,7.60
2019-05-02T04:21:13.498Z,8.37
2019-05-02T04:23:42.691Z,8.40
2019-05-02T04:26:12.812Z,7.90
2019-05-02T04:28:45.532Z,8.50
2019-05-02T04:31:11.673Z,9.03
2019-05-02T04:33:40.148Z,8.90
2019-05-02T04:36:15.206Z,9.43
2019-05-02T04:38:46.990Z,9.93
2019-05-02T04:41:09.521Z,9.50
2019-05-02T04:43:40.626Z,8.93
2019-05-02T04:46:17.514Z,10.03
2019-05-02T04:48:44.334Z,9.50
2019-05-02T04:51:15.957Z,8.80
2019-05-02T04:53:44.408Z,10.50
2019-05-02T04:56:10.627Z,9.73
2019-05-02T04:58:40.755Z,10.40
2019-05-02T05:01:10.078Z,8.87
2019-05-02T05:03:38.806Z,10.17
2019-05-02T05:06:11.917Z,10.20
2019-05-02T05:08:41.580Z,9.10
2019-05-02T05:11:08.945Z,11.83
2019-05-02T05:13:37.607Z,9.70
2019-05-02T05:16:08.624Z,11.90
2019-05-02T05:18:37.811Z,10.27
2019-05-02T05:21:10.338Z,10.20
2019-05-02T05:23:38.458Z,8.60
2019-05-02T05:26:07.400Z,9.73
2019-05-02T05:28:40.459Z,10.20
2019-05-02T05:31:07.661Z,11.10
2019-05-02T05:33:37.753Z,9.70
2019-05-02T05:36:08.156Z,9.90
2019-05-02T05:38:40.451Z,9.20
2019-05-02T05:41:09.025Z,10.00
2019-05-02T05:43:38.254Z,10.90
2019-05-02T05:46:10.728Z,10.93
2019-05-02T05:48:40.648Z,12.63
2019-05-02T05:51:07.470Z,9.10
2019-05-02T05:53:37.679Z,9.33
2019-05-02T05:56:07.955Z,11.07
2019-05-02T05:58:39.833Z,11.70
2019-05-02T06:01:09.535Z,10.50
2019-05-02T06:03:41.986Z,11.20
2019-05-02T06:06:08.233Z,10.27
2019-05-02T06:08:37.317Z,10.00
2019-05-02T06:11:05.880Z,11.43
2019-05-02T06:13:34.365Z,12.40
2019-05-02T06:16:03.460Z,10.97
2019-05-02T06:18:36.340Z,12.87
2019-05-02T06:21:03.442Z,11.97
2019-05-02T06:23:36.419Z,11.57
2019-05-02T06:26:08.031Z,10.07
2019-05-02T06:28:36.217Z,11.50
2019-05-02T06:31:07.292Z,10.87
2019-05-02T06:33:33.861Z,12.00
2019-05-02T06:36:02.591Z,13.10
2019-05-02T06:38:31.147Z,12.97
2019-05-02T06:40:59.606Z,11.63
2019-05-02T06:43:28.085Z,13.93
2019-05-02T06:45:56.606Z,10.47
2019-05-02T06:48:25.089Z,12.20
2019-05-02T06:50:53.572Z,12.40
2019-05-02T06:53:22.095Z,12.00
2019-05-02T06:55:50.587Z,12.60
2019-05-02T06:58:19.164Z,14.10
2019-05-02T07:00:57.448Z,11.00
2019-05-02T07:03:17.967Z,12.60
2019-05-02T07:05:49.074Z,12.47
2019-05-02T07:08:16.893Z,12.43
2019-05-02T07:10:45.381Z,11.50
2019-05-02T07:13:16.019Z,13.87
2019-05-02T07:15:57.890Z,13.20
2019-05-02T07:18:28.043Z,10.73
2019-05-02T07:20:56.523Z,13.47
2019-05-02T07:23:25.130Z,14.10
2019-05-02T07:25:53.623Z,14.13
2019-05-02T07:28:24.068Z,12.97
2019-05-02T07:30:54.631Z,13.73
2019-05-02T07:33:22.622Z,12.70
2019-05-02T07:35:55.180Z,14.30
2019-05-02T07:38:25.609Z,12.60
2019-05-02T07:40:53.128Z,13.73
2019-05-02T07:43:22.403Z,14.00
2019-05-02T07:45:51.103Z,15.97
2019-05-02T07:48:19.592Z,15.33
2019-05-02T07:50:48.278Z,15.37
2019-05-02T07:53:16.868Z,14.07
2019-05-02T07:55:45.349Z,15.03
2019-05-02T07:58:13.836Z,12.43
2019-05-02T08:00:42.369Z,15.10
2019-05-02T08:03:10.857Z,14.67
2019-05-02T08:05:39.327Z,16.60
2019-05-02T08:08:07.921Z,16.47
2019-05-02T08:10:36.480Z,17.70
2019-05-02T08:13:05.061Z,14.47
2019-05-02T08:15:33.886Z,14.97
2019-05-02T08:18:02.381Z,14.67
2019-05-02T08:20:30.869Z,15.07
2019-05-02T08:22:59.384Z,12.90
2019-05-02T08:25:27.866Z,14.40
2019-05-02T08:27:58.065Z,15.80
2019-05-02T08:30:28.410Z,15.30
2019-05-02T08:32:56.892Z,17.07
2019-05-02T08:35:28.096Z,17.30
2019-05-02T08:37:56.143Z,11.03
2019-05-02T08:40:24.914Z,12.50
2019-05-02T08:42:53.401Z,15.30
2019-05-02T08:45:22.003Z,13.37
2019-05-02T08:47:50.489Z,14.83
2019-05-02T08:50:19.142Z,16.10
2019-05-02T08:52:48.098Z,13.70
2019-05-02T08:55:16.906Z,14.30
2019-05-02T08:57:45.375Z,16.00
2019-05-02T09:00:14.429Z,15.07
2019-05-02T09:02:42.915Z,13.70
2019-05-02T09:05:11.463Z,14.33
2019-05-02T09:07:42.762Z,15.27
2019-05-02T09:10:10.803Z,14.30
2019-05-02T09:12:42.089Z,12.97
2019-05-02T09:15:11.813Z,12.63
2019-05-02T09:17:46.077Z,13.03
2019-05-02T09:20:18.701Z,13.97
2019-05-02T09:22:46.666Z,15.30
2019-05-02T09:25:12.818Z,13.50
2019-05-02T09:27:42.031Z,12.97
2019-05-02T09:30:17.027Z,13.43
2019-05-02T09:32:42.715Z,14.30
2019-05-02T09:35:11.822Z,13.50
2019-05-02T09:37:41.934Z,12.87
2019-05-02T09:40:12.607Z,14.33
2019-05-02T09:42:43.002Z,13.10
2019-05-02T09:45:16.311Z,11.67
2019-05-02T09:47:55.825Z,13.20
2019-05-02T09:50:20.580Z,13.53
2019-05-02T09:52:47.159Z,14.07
2019-05-02T09:55:16.661Z,14.70
2019-05-02T09:57:47.021Z,13.87
2019-05-02T10:00:35.752Z,11.60
2019-05-02T10:03:02.690Z,12.20
2019-05-02T10:05:32.209Z,12.00
2019-05-02T10:08:02.989Z,11.40
2019-05-02T10:10:32.347Z,13.47
2019-05-02T10:13:02.817Z,13.03
2019-05-02T10:15:32.678Z,11.57
2019-05-02T10:18:10.629Z,11.03
2019-05-02T10:20:36.180Z,9.87
2019-05-02T10:23:04.621Z,11.30
2019-05-02T10:25:38.696Z,12.90
2019-05-02T10:28:03.493Z,10.43
2019-05-02T10:30:36.000Z,10.60
2019-05-02T10:33:04.534Z,10.30
2019-05-02T10:35:40.415Z,10.23
2019-05-02T10:38:04.915Z,9.80
2019-05-02T10:40:33.437Z,10.43
2019-05-02T10:43:02.864Z,11.80
2019-05-02T10:45:32.082Z,9.10
2019-05-02T10:48:02.290Z,10.73
2019-05-02T10:50:32.967Z,9.60
2019-05-02T10:53:03.566Z,8.43
2019-05-02T10:55:33.257Z,8.60
2019-05-02T10:58:02.086Z,9.70
2019-05-02T11:00:32.545Z,9.10
2019-05-02T11:03:05.867Z,9.20
2019-05-02T11:05:37.400Z,10.30
2019-05-02T11:08:06.519Z,10.93
2019-05-02T11:10:35.130Z,11.40
2019-05-02T11:13:14.479Z,10.23
2019-05-02T11:15:52.507Z,10.00
2019-05-02T11:18:38.787Z,8.73
2019-05-02T11:20:53.294Z,8.53
2019-05-02T11:23:22.160Z,10.10
2019-05-02T11:25:52.644Z,12.00
2019-05-02T11:28:22.041Z,10.30
2019-05-02T11:30:52.487Z,9.70
2019-05-02T11:33:22.843Z,11.30
2019-05-02T11:35:53.479Z,11.07
2019-05-02T11:38:39.557Z,9.97
2019-05-02T11:40:52.149Z,10.90
2019-05-02T11:43:22.290Z,9.27
2019-05-02T11:45:54.397Z,9.60
2019-05-02T11:48:22.591Z,10.30
2019-05-02T11:50:52.309Z,10.03
2019-05-02T11:53:28.503Z,10.03
2019-05-02T11:55:53.198Z,9.70
2019-05-02T11:58:22.987Z,11.30
2019-05-02T12:00:52.280Z,9.57
2019-05-02T12:03:28.110Z,10.30
2019-05-02T12:05:55.692Z,10.73
2019-05-02T12:08:24.593Z,9.60
2019-05-02T12:10:53.085Z,8.67
2019-05-02T12:13:22.683Z,9.97
2019-05-02T12:15:51.998Z,8.70
2019-05-02T12:18:23.191Z,8.80
2019-05-02T12:20:51.951Z,7.47
2019-05-02T12:23:22.634Z,9.47
2019-05-02T12:25:52.036Z,9.03
2019-05-02T12:28:22.777Z,9.20
2019-05-02T12:30:51.886Z,8.47
2019-05-02T12:33:22.319Z,9.17
2019-05-02T12:35:52.448Z,8.60
2019-05-02T12:38:23.109Z,10.50
2019-05-02T12:40:52.037Z,10.33
2019-05-02T12:43:22.767Z,8.93
2019-05-02T12:45:52.850Z,9.30
2019-05-02T12:48:21.982Z,8.57
2019-05-02T12:50:52.781Z,10.10
2019-05-02T12:53:21.976Z,10.13
2019-05-02T12:55:52.568Z,10.70
2019-05-02T12:58:21.880Z,10.37
2019-05-02T13:00:52.839Z,10.63
2019-05-02T13:03:40.736Z,11.97
2019-05-02T13:06:09.284Z,13.57
2019-05-02T13:08:52.083Z,13.90
2019-05-02T13:11:24.486Z,12.33
2019-05-02T13:13:53.478Z,11.50
2019-05-02T13:16:22.644Z,13.63
2019-05-02T13:18:51.935Z,13.50
2019-05-02T13:21:23.499Z,11.80
2019-05-02T13:23:56.820Z,11.33
2019-05-02T13:26:27.225Z,10.57
2019-05-02T13:28:55.844Z,11.90
2019-05-02T13:31:25.993Z,11.70
2019-05-02T13:34:06.453Z,12.80
2019-05-02T13:36:42.507Z,13.07
2019-05-02T13:39:14.839Z,12.57
2019-05-02T13:41:43.408Z,13.37
2019-05-02T13:44:13.743Z,13.20
2019-05-02T13:46:42.336Z,10.90
2019-05-02T13:49:12.781Z,12.27
2019-05-02T13:51:42.630Z,12.00
2019-05-02T13:54:12.548Z,11.90
2019-05-02T13:56:45.042Z,12.20
2019-05-02T13:59:13.177Z,12.80
2019-05-02T14:01:42.364Z,13.80
2019-05-02T14:04:14.715Z,12.70
2019-05-02T14:06:42.127Z,14.10
2019-05-02T14:09:29.076Z,13.57
2019-05-02T14:11:59.234Z,11.67
2019-05-02T14:14:27.728Z,13.30
2019-05-02T14:16:56.224Z,13.00
2019-05-02T14:19:24.853Z,12.20
2019-05-02T14:21:53.513Z,12.30
2019-05-02T14:24:24.583Z,12.67
2019-05-02T14:26:53.178Z,13.20
2019-05-02T14:29:23.372Z,12.30
2019-05-02T14:31:52.065Z,13.10
2019-05-02T14:34:42.525Z,12.37
2019-05-02T14:37:14.161Z,13.60
2019-05-02T14:39:44.935Z,13.60
2019-05-02T14:42:21.300Z,14.80
2019-05-02T14:45:04.039Z,14.40
2019-05-02T14:47:17.739Z,13.07
2019-05-02T14:49:44.175Z,13.37
2019-05-02T14:52:12.781Z,10.60
2019-05-02T14:54:43.837Z,13.07
2019-05-02T14:57:17.137Z,14.23
2019-05-02T14:59:43.567Z,14.60
2019-05-02T15:02:14.098Z,14.37
2019-05-02T15:04:44.430Z,13.93
2019-05-02T15:07:13.095Z,13.57
2019-05-02T15:09:41.926Z,14.83
2019-05-02T15:12:15.872Z,14.57
2019-05-02T15:14:43.136Z,17.10
2019-05-02T15:17:12.085Z,13.27
2019-05-02T15:19:42.645Z,12.10
2019-05-02T15:22:12.437Z,13.43
2019-05-02T15:24:42.362Z,12.73
2019-05-02T15:27:17.113Z,15.43
2019-05-02T15:29:42.113Z,14.37
2019-05-02T15:32:12.750Z,13.17
2019-05-02T15:34:59.110Z,13.80
2019-05-02T15:37:29.404Z,14.80
2019-05-02T15:42:28.327Z,14.53
2019-05-02T15:45:01.857Z,14.90
2019-05-02T15:47:28.144Z,15.07
2019-05-02T15:49:56.622Z,16.37
2019-05-02T15:52:29.610Z,17.20
2019-05-02T15:55:01.211Z,16.93
2019-05-02T15:57:28.297Z,16.63
2019-05-02T15:59:56.872Z,18.30
2019-05-02T16:02:27.002Z,16.37
2019-05-02T16:04:57.114Z,19.03
2019-05-02T16:07:25.859Z,19.23
2019-05-02T16:09:59.450Z,18.17
2019-05-02T16:12:27.234Z,19.87
2019-05-02T16:14:54.832Z,17.80
2019-05-02T16:17:25.802Z,18.60
2019-05-02T16:19:58.661Z,21.13
2019-05-02T16:22:26.787Z,22.63
2019-05-02T16:24:56.719Z,19.80
2019-05-02T16:27:44.283Z,19.90
2019-05-02T16:30:17.218Z,19.13
2019-05-02T16:32:47.430Z,19.00
2019-05-02T16:35:17.660Z,20.50
2019-05-02T16:37:46.772Z,22.93
2019-05-02T16:40:22.235Z,19.30
2019-05-02T16:42:47.335Z,18.50
2019-05-02T16:45:16.523Z,20.57
2019-05-02T16:47:45.005Z,19.73
2019-05-02T16:50:14.251Z,19.43
2019-05-02T16:52:47.084Z,17.03
2019-05-02T16:55:20.568Z,18.33
2019-05-02T16:57:43.726Z,17.33
2019-05-02T17:00:15.689Z,17.90
2019-05-02T17:02:46.391Z,17.33
2019-05-02T17:05:14.655Z,18.07
2019-05-02T17:07:52.718Z,17.20
2019-05-02T17:10:35.019Z,14.97
2019-05-02T17:13:03.734Z,14.13
2019-05-02T17:15:35.323Z,16.20
2019-05-02T17:18:12.897Z,14.47
2019-05-02T17:20:35.193Z,14.37
2019-05-02T17:23:07.429Z,14.60
2019-05-02T17:25:34.105Z,13.23
2019-05-02T17:28:08.419Z,13.77
2019-05-02T17:30:38.547Z,14.30
2019-05-02T17:33:07.334Z,13.73
2019-05-02T17:35:34.624Z,13.03
2019-05-02T17:38:03.341Z,14.70
2019-05-02T17:40:32.260Z,13.23
2019-05-02T17:43:04.974Z,14.37
2019-05-02T17:45:33.374Z,14.03
2019-05-02T17:48:02.142Z,14.20
2019-05-02T17:50:42.225Z,14.47
2019-05-02T17:53:11.637Z,13.30
2019-05-02T17:55:42.667Z,12.07
2019-05-02T17:58:16.400Z,12.47
2019-05-02T18:00:43.137Z,13.30
2019-05-02T18:03:13.023Z,14.60
2019-05-02T18:05:42.027Z,12.77
2019-05-02T18:08:14.593Z,12.20
2019-05-02T18:10:41.925Z,13.27
2019-05-02T18:13:12.151Z,13.53
2019-05-02T18:15:41.704Z,15.03
2019-05-02T18:18:10.464Z,14.07
2019-05-02T18:20:42.723Z,13.33
2019-05-02T18:23:09.290Z,13.53
2019-05-02T18:25:37.762Z,4.10
2019-05-02T18:28:06.378Z,2.00
2019-05-02T18:30:35.757Z,2.40
2019-05-02T18:33:07.246Z,1.70
2019-05-02T18:35:37.449Z,1.73
2019-05-02T18:38:05.568Z,2.07
2019-05-02T18:40:34.052Z,2.43
2019-05-02T18:43:05.250Z,2.33
2019-05-02T18:45:32.843Z,3.73
2019-05-02T18:48:06.555Z,3.93
2019-05-02T18:50:41.322Z,5.20
2019-05-02T18:53:08.701Z,3.00
2019-05-02T18:55:38.618Z,2.67
2019-05-02T18:58:07.415Z,3.10
2019-05-02T19:00:39.528Z,4.40
2019-05-02T19:03:13.275Z,3.37
2019-05-02T19:05:38.437Z,4.10
2019-05-02T19:08:07.158Z,3.10
2019-05-02T19:10:37.149Z,3.37
2019-05-02T19:13:06.332Z,3.37
2019-05-02T19:15:39.510Z,3.20
2019-05-02T19:18:05.317Z,3.43
2019-05-02T19:20:57.537Z,3.30
2019-05-02T19:23:25.271Z,4.53
2019-05-02T19:25:53.802Z,5.30
2019-05-02T19:28:38.407Z,4.70
2019-05-02T19:31:07.039Z,4.10
2019-05-02T19:33:37.356Z,2.57
2019-05-02T19:36:07.558Z,3.87
2019-05-02T19:38:36.027Z,3.77
2019-05-02T19:41:08.706Z,4.43
2019-05-02T19:43:35.121Z,3.97
2019-05-02T19:46:04.253Z,3.93
2019-05-02T19:48:36.943Z,3.97
2019-05-02T19:51:03.114Z,3.70
2019-05-02T19:53:32.485Z,4.20
2019-05-02T19:56:02.947Z,3.50
2019-05-02T19:58:36.623Z,3.27
2019-05-02T20:01:02.882Z,4.33
2019-05-02T20:03:32.357Z,3.20
2019-05-02T20:06:02.482Z,4.00
2019-05-02T20:08:32.629Z,3.40
2019-05-02T20:11:02.133Z,3.47
2019-05-02T20:13:32.714Z,3.60
2019-05-02T20:16:05.928Z,3.60
2019-05-02T20:18:42.550Z,3.10
2019-05-02T20:21:06.592Z,3.50
2019-05-02T20:23:35.715Z,3.60
2019-05-02T20:26:09.395Z,5.03
2019-05-02T20:28:35.865Z,3.40
2019-05-02T20:31:04.499Z,3.87
2019-05-02T20:33:33.110Z,3.70
2019-05-02T20:36:01.955Z,3.70
2019-05-02T20:38:32.445Z,3.63
2019-05-02T20:41:02.919Z,3.93
2019-05-02T20:43:32.259Z,3.67
2019-05-02T20:46:02.567Z,4.07
2019-05-02T20:48:32.234Z,3.60
2019-05-02T20:51:02.685Z,3.90
2019-05-02T20:53:33.942Z,3.17
2019-05-02T20:56:01.907Z,4.57
2019-05-02T20:58:32.462Z,4.17
2019-05-02T21:01:07.807Z,4.33
2019-05-02T21:03:32.081Z,4.53
2019-05-02T21:06:12.252Z,4.37
2019-05-02T21:08:55.065Z,4.27
2019-05-02T21:11:27.441Z,3.77
2019-05-02T21:13:56.114Z,4.27
2019-05-02T21:16:24.575Z,4.30
2019-05-02T21:18:53.078Z,4.77
2019-05-02T21:21:22.093Z,3.87
2019-05-02T21:23:52.813Z,4.30
2019-05-02T21:26:23.849Z,4.43
2019-05-02T21:28:54.101Z,4.63
2019-05-02T21:31:25.439Z,4.53
2019-05-02T21:33:55.952Z,4.70
2019-05-02T21:36:24.446Z,4.37
2019-05-02T21:38:52.941Z,4.53
2019-05-02T21:41:26.462Z,5.43
2019-05-02T21:43:54.924Z,3.03
2019-05-02T21:46:25.778Z,2.53
2019-05-02T21:48:55.951Z,3.80
2019-05-02T21:51:32.255Z,4.33
2019-05-02T21:54:06.717Z,4.13
2019-05-02T21:56:40.027Z,4.20
2019-05-02T21:59:11.899Z,4.10
2019-05-02T22:01:52.153Z,4.53
2019-05-02T22:04:22.533Z,4.07
2019-05-02T22:06:52.169Z,4.33
2019-05-02T22:09:22.857Z,4.17
2019-05-02T22:11:52.052Z,4.03
2019-05-02T22:14:22.265Z,4.33
2019-05-02T22:16:52.892Z,3.70
2019-05-02T22:19:21.376Z,3.90
2019-05-02T22:21:49.848Z,4.40
2019-05-02T22:24:18.375Z,4.20
2019-05-02T22:26:46.850Z,4.33
2019-05-02T22:29:15.333Z,3.40
2019-05-02T22:31:43.920Z,4.70
2019-05-02T22:34:13.014Z,4.07
2019-05-02T22:36:42.214Z,4.73
2019-05-02T22:39:15.903Z,8.17
2019-05-02T22:41:44.375Z,3.67
2019-05-02T22:44:14.038Z,4.87
2019-05-02T22:46:43.962Z,3.17
2019-05-02T22:49:15.078Z,4.03
2019-05-02T22:51:44.332Z,4.10
2019-05-02T22:54:24.265Z,3.37
2019-05-02T22:56:43.576Z,4.37
2019-05-02T22:59:12.058Z,3.80
2019-05-02T23:01:42.167Z,3.97
2019-05-02T23:04:12.745Z,3.20
2019-05-02T23:06:43.863Z,2.67
2019-05-02T23:09:12.660Z,4.77
2019-05-02T23:11:42.673Z,3.57
2019-05-02T23:14:11.457Z,3.33
2019-05-02T23:16:42.302Z,2.97
2019-05-02T23:19:12.003Z,3.50
2019-05-02T23:21:42.247Z,2.83
2019-05-02T23:24:14.630Z,3.03
2019-05-02T23:26:53.079Z,3.67
2019-05-02T23:29:22.657Z,3.50
2019-05-02T23:31:51.820Z,4.43
2019-05-02T23:34:23.369Z,3.17
2019-05-02T23:36:52.272Z,3.33
2019-05-02T23:39:20.945Z,2.80
2019-05-02T23:41:49.410Z,4.00
2019-05-02T23:44:17.968Z,3.20
2019-05-02T23:46:47.457Z,3.20
2019-05-02T23:49:17.752Z,3.03
2019-05-02T23:51:46.257Z,2.80
2019-05-02T23:54:14.747Z,3.43
2019-05-02T23:56:43.351Z,2.70
2019-05-02T23:59:12.086Z,2.53
